createdAt,value
2018-06-11T00:01:43.620Z,0.00
2018-06-11T00:02:43.673Z,0.00
2018-06-11T00:04:36.664Z,0.00
2018-06-11T00:05:36.727Z,0.00
2018-06-11T00:07:29.725Z,0.00
2018-06-11T00:08:29.779Z,0.00
2018-06-11T00:10:22.774Z,0.00
2018-06-11T00:11:22.838Z,0.00
2018-06-11T00:13:15.836Z,0.00
2018-06-11T00:14:15.894Z,0.00
2018-06-11T00:16:08.884Z,0.00
2018-06-11T00:17:08.948Z,0.00
2018-06-11T00:19:01.950Z,0.00
2018-06-11T00:20:02.005Z,0.00
2018-06-11T00:21:55.001Z,0.00
2018-06-11T00:22:55.090Z,0.00
2018-06-11T00:24:48.047Z,0.00
2018-06-11T00:25:48.113Z,0.00
2018-06-11T00:27:41.109Z,0.00
2018-06-11T00:28:41.166Z,0.00
2018-06-11T00:30:34.154Z,0.00
2018-06-11T00:31:34.219Z,0.00
2018-06-11T00:33:27.218Z,0.00
2018-06-11T00:34:27.272Z,0.00
2018-06-11T00:36:20.262Z,0.00
2018-06-11T00:37:20.328Z,0.00
2018-06-11T00:39:13.369Z,0.00
2018-06-11T00:40:13.382Z,0.00
2018-06-11T00:42:06.374Z,0.00
2018-06-11T00:43:06.439Z,0.00
2018-06-11T00:44:59.434Z,0.00
2018-06-11T00:45:59.493Z,0.00
2018-06-11T00:47:52.488Z,0.00
2018-06-11T00:48:52.547Z,0.00
2018-06-11T00:50:45.534Z,0.00
2018-06-11T00:51:45.598Z,0.00
2018-06-11T00:53:38.598Z,0.00
2018-06-11T00:54:38.654Z,0.00
2018-06-11T00:56:31.648Z,0.00
2018-06-11T00:57:31.714Z,0.00
2018-06-11T00:59:25.226Z,0.00
2018-06-11T01:00:25.276Z,0.00
2018-06-11T01:02:18.270Z,0.00
2018-06-11T01:03:18.335Z,0.00
2018-06-11T01:05:11.336Z,0.00
2018-06-11T01:06:11.391Z,0.00
2018-06-11T01:08:04.440Z,0.00
2018-06-11T01:09:04.456Z,0.00
2018-06-11T01:10:57.452Z,0.00
2018-06-11T01:11:57.512Z,0.00
2018-06-11T01:13:50.519Z,0.00
2018-06-11T01:14:50.570Z,0.00
2018-06-11T01:16:43.560Z,0.00
2018-06-11T01:17:43.625Z,0.00
2018-06-11T01:19:36.627Z,0.00
2018-06-11T01:20:36.684Z,0.00
2018-06-11T01:22:29.674Z,0.00
2018-06-11T01:23:29.738Z,0.00
2018-06-11T01:25:22.740Z,0.00
2018-06-11T01:26:22.798Z,0.00
2018-06-11T01:28:15.788Z,0.00
2018-06-11T01:29:15.853Z,0.00
2018-06-11T01:31:08.856Z,0.00
2018-06-11T01:32:08.914Z,0.00
2018-06-11T01:34:01.903Z,0.00
2018-06-11T01:35:01.967Z,0.00
2018-06-11T01:36:54.967Z,0.00
2018-06-11T01:37:55.022Z,0.00
2018-06-11T01:39:48.024Z,0.00
2018-06-11T01:40:48.084Z,0.00
2018-06-11T01:42:41.077Z,0.00
2018-06-11T01:43:41.140Z,0.00
2018-06-11T01:45:34.141Z,0.00
2018-06-11T01:46:34.198Z,0.00
2018-06-11T01:48:27.194Z,0.00
2018-06-11T01:49:27.254Z,0.00
2018-06-11T01:51:20.253Z,0.00
2018-06-11T01:52:20.309Z,0.00
2018-06-11T01:54:13.308Z,0.00
2018-06-11T01:55:13.370Z,0.00
2018-06-11T01:57:06.370Z,0.00
2018-06-11T01:58:06.428Z,0.00
2018-06-11T01:59:59.425Z,0.00
2018-06-11T02:00:59.488Z,0.00
2018-06-11T02:02:52.485Z,0.00
2018-06-11T02:03:52.537Z,0.00
2018-06-11T02:05:45.557Z,0.00
2018-06-11T02:06:45.595Z,0.00
2018-06-11T02:08:38.590Z,0.00
2018-06-11T02:09:38.655Z,0.00
2018-06-11T02:11:31.654Z,0.00
2018-06-11T02:12:31.709Z,0.00
2018-06-11T02:14:24.707Z,0.00
2018-06-11T02:15:24.773Z,0.00
2018-06-11T02:17:17.770Z,0.00
2018-06-11T02:18:17.823Z,0.00
2018-06-11T02:20:10.818Z,0.00
2018-06-11T02:21:10.881Z,0.00
2018-06-11T02:23:03.878Z,0.00
2018-06-11T02:24:03.933Z,0.00
2018-06-11T02:25:56.932Z,0.00
2018-06-11T02:26:56.991Z,0.00
2018-06-11T02:28:49.989Z,0.00
2018-06-11T02:29:50.044Z,0.00
2018-06-11T02:31:43.043Z,0.00
2018-06-11T02:32:43.102Z,0.00
2018-06-11T02:34:36.085Z,0.00
2018-06-11T02:35:36.149Z,0.00
2018-06-11T02:37:29.193Z,0.00
2018-06-11T02:38:29.203Z,0.00
2018-06-11T02:40:22.194Z,0.00
2018-06-11T02:41:22.255Z,0.00
2018-06-11T02:43:15.253Z,0.00
2018-06-11T02:44:15.311Z,0.00
2018-06-11T02:46:08.306Z,0.00
2018-06-11T02:47:08.365Z,0.00
2018-06-11T02:49:01.363Z,0.00
2018-06-11T02:50:01.416Z,0.00
2018-06-11T02:51:54.414Z,0.00
2018-06-11T02:52:54.471Z,0.00
2018-06-11T02:54:47.472Z,0.00
2018-06-11T02:55:47.530Z,0.00
2018-06-11T02:57:40.527Z,0.00
2018-06-11T02:58:40.587Z,0.00
2018-06-11T03:00:33.576Z,5.63
2018-06-11T03:01:33.634Z,5.63
2018-06-11T03:03:26.636Z,5.63
2018-06-11T03:04:26.690Z,5.63
2018-06-11T03:06:19.682Z,5.63
2018-06-11T03:07:19.743Z,5.63
2018-06-11T03:09:12.740Z,5.63
2018-06-11T03:10:12.799Z,11.25
2018-06-11T03:12:05.788Z,11.25
2018-06-11T03:13:05.849Z,11.25
2018-06-11T03:14:58.848Z,11.25
2018-06-11T03:15:58.903Z,11.25
2018-06-11T03:17:51.893Z,16.88
2018-06-11T03:18:51.954Z,16.88
2018-06-11T03:20:44.955Z,16.88
2018-06-11T03:21:45.009Z,22.50
2018-06-11T03:23:38.064Z,22.50
2018-06-11T03:24:38.060Z,28.13
2018-06-11T03:26:31.048Z,28.13
2018-06-11T03:27:31.111Z,33.75
2018-06-11T03:29:24.114Z,33.75
2018-06-11T03:30:24.164Z,39.38
2018-06-11T03:32:17.161Z,45.00
2018-06-11T03:33:17.220Z,45.00
2018-06-11T03:35:10.218Z,50.63
2018-06-11T03:36:10.271Z,50.63
2018-06-11T03:38:03.268Z,56.25
2018-06-11T03:39:03.330Z,56.25
2018-06-11T03:40:56.327Z,56.25
2018-06-11T03:41:56.385Z,56.25
2018-06-11T03:43:49.382Z,50.63
2018-06-11T03:44:49.446Z,45.00
2018-06-11T03:46:42.444Z,45.00
2018-06-11T03:47:42.501Z,45.00
2018-06-11T03:49:35.505Z,45.00
2018-06-11T03:50:35.558Z,45.00
2018-06-11T03:52:28.549Z,50.63
2018-06-11T03:53:28.612Z,56.25
2018-06-11T03:55:21.611Z,56.25
2018-06-11T03:56:21.669Z,61.88
2018-06-11T03:58:14.670Z,61.88
2018-06-11T03:59:14.729Z,67.50
2018-06-11T04:01:07.728Z,67.50
2018-06-11T04:02:07.786Z,73.13
2018-06-11T04:04:00.783Z,84.38
2018-06-11T04:05:00.850Z,90.00
2018-06-11T04:06:53.850Z,95.63
2018-06-11T04:07:53.902Z,101.25
2018-06-11T04:09:46.892Z,106.88
2018-06-11T04:10:46.973Z,106.88
2018-06-11T04:12:39.963Z,106.88
2018-06-11T04:13:40.024Z,112.50
2018-06-11T04:15:33.019Z,112.50
2018-06-11T04:16:33.074Z,118.13
2018-06-11T04:18:26.064Z,123.75
2018-06-11T04:19:26.168Z,129.38
2018-06-11T04:21:19.131Z,140.63
2018-06-11T04:22:19.190Z,140.63
2018-06-11T04:24:12.176Z,135.00
2018-06-11T04:25:12.240Z,129.38
2018-06-11T04:27:05.244Z,123.75
2018-06-11T04:28:05.300Z,123.75
2018-06-11T04:29:58.304Z,118.13
2018-06-11T04:30:58.364Z,118.13
2018-06-11T04:32:51.362Z,112.50
2018-06-11T04:33:51.418Z,106.88
2018-06-11T04:35:44.407Z,106.88
2018-06-11T04:36:44.472Z,112.50
2018-06-11T04:38:37.475Z,112.50
2018-06-11T04:39:37.554Z,106.88
2018-06-11T04:41:30.535Z,112.50
2018-06-11T04:42:30.589Z,118.13
2018-06-11T04:44:23.579Z,106.88
2018-06-11T04:45:23.681Z,112.50
2018-06-11T04:47:16.647Z,135.00
2018-06-11T04:48:16.707Z,146.25
2018-06-11T04:50:09.695Z,213.75
2018-06-11T04:51:09.758Z,230.63
2018-06-11T04:53:02.759Z,236.25
2018-06-11T04:54:02.817Z,236.25
2018-06-11T04:55:55.816Z,253.13
2018-06-11T04:56:55.879Z,253.13
2018-06-11T04:58:48.879Z,286.88
2018-06-11T04:59:48.935Z,303.75
2018-06-11T05:01:41.938Z,303.75
2018-06-11T05:02:41.996Z,219.38
2018-06-11T05:04:34.991Z,309.38
2018-06-11T05:05:35.040Z,303.75
2018-06-11T05:07:28.057Z,309.38
2018-06-11T05:08:28.102Z,315.00
2018-06-11T05:10:21.096Z,309.38
2018-06-11T05:11:21.154Z,320.63
2018-06-11T05:13:14.163Z,348.75
2018-06-11T05:14:14.223Z,371.25
2018-06-11T05:16:07.231Z,393.75
2018-06-11T05:17:07.276Z,393.75
2018-06-11T05:19:00.285Z,405.00
2018-06-11T05:20:00.336Z,416.25
2018-06-11T05:21:53.834Z,416.25
2018-06-11T05:22:53.891Z,421.88
2018-06-11T05:24:46.902Z,438.75
2018-06-11T05:25:46.953Z,466.88
2018-06-11T05:27:39.971Z,472.50
2018-06-11T05:28:40.025Z,478.13
2018-06-11T05:30:32.999Z,478.13
2018-06-11T05:31:33.064Z,489.38
2018-06-11T05:33:26.073Z,478.13
2018-06-11T05:34:26.142Z,483.75
2018-06-11T05:36:19.114Z,506.25
2018-06-11T05:37:19.180Z,511.88
2018-06-11T05:39:12.183Z,517.50
2018-06-11T05:40:12.241Z,489.38
2018-06-11T05:42:05.233Z,455.63
2018-06-11T05:43:05.305Z,427.50
2018-06-11T05:44:58.307Z,421.88
2018-06-11T05:45:58.361Z,438.75
2018-06-11T05:47:51.364Z,455.63
2018-06-11T05:48:51.423Z,472.50
2018-06-11T05:50:44.431Z,545.63
2018-06-11T05:51:44.479Z,545.63
2018-06-11T05:53:37.491Z,534.38
2018-06-11T05:54:37.534Z,528.75
2018-06-11T05:56:30.532Z,517.50
2018-06-11T05:57:30.611Z,511.88
2018-06-11T05:59:23.596Z,545.63
2018-06-11T06:00:23.647Z,573.75
2018-06-11T06:02:16.656Z,618.75
2018-06-11T06:03:16.708Z,635.63
2018-06-11T06:05:09.725Z,635.63
2018-06-11T06:06:09.779Z,646.88
2018-06-11T06:08:02.769Z,635.63
2018-06-11T06:09:02.833Z,641.25
2018-06-11T06:10:55.836Z,618.75
2018-06-11T06:11:55.892Z,585.00
2018-06-11T06:13:48.891Z,624.38
2018-06-11T06:14:48.949Z,669.38
2018-06-11T06:16:41.961Z,686.25
2018-06-11T06:17:42.009Z,669.38
2018-06-11T06:19:35.016Z,607.50
2018-06-11T06:20:35.066Z,590.63
2018-06-11T06:22:28.590Z,556.88
2018-06-11T06:23:28.628Z,523.13
2018-06-11T06:25:21.628Z,568.13
2018-06-11T06:26:21.697Z,596.25
2018-06-11T06:28:14.678Z,635.63
2018-06-11T06:29:14.743Z,635.63
2018-06-11T06:31:07.743Z,630.00
2018-06-11T06:32:07.803Z,646.88
2018-06-11T06:34:00.812Z,669.38
2018-06-11T06:35:00.876Z,607.50
2018-06-11T06:36:54.877Z,669.38
2018-06-11T06:37:54.934Z,703.13
2018-06-11T06:39:47.948Z,714.38
2018-06-11T06:40:47.992Z,691.88
2018-06-11T06:42:40.998Z,658.13
2018-06-11T06:43:41.055Z,652.50
2018-06-11T06:45:34.063Z,663.75
2018-06-11T06:46:34.115Z,680.63
2018-06-11T06:48:27.118Z,748.13
2018-06-11T06:49:27.181Z,691.88
2018-06-11T06:51:20.205Z,455.63
2018-06-11T06:52:20.238Z,478.13
2018-06-11T06:54:13.240Z,573.75
2018-06-11T06:55:13.299Z,669.38
2018-06-11T06:57:06.302Z,613.13
2018-06-11T06:58:06.365Z,433.13
2018-06-11T06:59:59.358Z,511.88
2018-06-11T07:00:59.416Z,708.75
2018-06-11T07:02:52.450Z,776.25
2018-06-11T07:03:52.478Z,742.50
2018-06-11T07:05:45.485Z,866.25
2018-06-11T07:06:46.499Z,945.00
2018-06-11T07:08:38.540Z,1057.50
2018-06-11T07:09:38.650Z,1355.63
2018-06-11T07:11:31.604Z,1271.25
2018-06-11T07:12:31.658Z,1406.25
2018-06-11T07:14:24.659Z,1580.63
2018-06-11T07:15:24.725Z,1597.50
2018-06-11T07:17:17.723Z,1698.75
2018-06-11T07:18:17.787Z,1749.38
2018-06-11T07:20:10.813Z,2002.50
2018-06-11T07:21:10.850Z,2233.13
2018-06-11T07:23:03.861Z,1203.75
2018-06-11T07:24:03.923Z,1051.88
2018-06-11T07:25:56.933Z,1732.50
2018-06-11T07:26:56.994Z,1698.75
2018-06-11T07:28:50.009Z,2238.75
2018-06-11T07:29:50.067Z,1265.63
2018-06-11T07:31:43.087Z,990.00
2018-06-11T07:32:43.137Z,1006.88
2018-06-11T07:34:36.147Z,871.88
2018-06-11T07:35:36.213Z,1063.13
2018-06-11T07:37:29.225Z,911.25
2018-06-11T07:38:29.292Z,832.50
2018-06-11T07:40:22.286Z,939.38
2018-06-11T07:41:22.349Z,1080.00
2018-06-11T07:43:15.362Z,1366.88
2018-06-11T07:44:15.422Z,1226.25
2018-06-11T07:46:08.429Z,1271.25
2018-06-11T07:47:08.491Z,1389.38
2018-06-11T07:49:01.498Z,4938.75
2018-06-11T07:50:01.563Z,4218.75
2018-06-11T07:51:54.559Z,2430.00
2018-06-11T07:52:54.629Z,5265.00
2018-06-11T07:54:47.637Z,1490.63
2018-06-11T07:55:47.707Z,1996.88
2018-06-11T07:57:40.717Z,1833.75
2018-06-11T07:58:40.774Z,2334.38
2018-06-11T08:00:33.782Z,1867.50
2018-06-11T08:01:33.850Z,3735.00
2018-06-11T08:03:26.878Z,1625.63
2018-06-11T08:04:26.929Z,1777.50
2018-06-11T08:06:19.944Z,1513.13
2018-06-11T08:07:20.025Z,1468.13
2018-06-11T08:09:13.033Z,1203.75
2018-06-11T08:10:13.094Z,1710.00
2018-06-11T08:12:06.104Z,4815.00
2018-06-11T08:13:06.198Z,3892.50
2018-06-11T08:14:59.191Z,5484.38
2018-06-11T08:15:59.255Z,5315.63
2018-06-11T08:17:52.270Z,5670.00
2018-06-11T08:18:52.342Z,5686.88
2018-06-11T08:20:45.379Z,3116.25
2018-06-11T08:21:45.436Z,5388.75
2018-06-11T08:23:38.458Z,5776.88
2018-06-11T08:24:38.540Z,4612.50
2018-06-11T08:26:31.548Z,2030.63
2018-06-11T08:27:31.639Z,1766.25
2018-06-11T08:29:24.649Z,2008.13
2018-06-11T08:30:24.722Z,1563.75
2018-06-11T08:32:17.742Z,5411.25
2018-06-11T08:33:17.822Z,5428.13
2018-06-11T08:35:10.866Z,5501.25
2018-06-11T08:36:10.931Z,5602.50
2018-06-11T08:38:03.952Z,5546.25
2018-06-11T08:39:04.029Z,5821.88
2018-06-11T08:40:57.054Z,3026.25
2018-06-11T08:41:57.127Z,5388.75
2018-06-11T08:43:50.167Z,5135.63
2018-06-11T08:44:50.225Z,4961.25
2018-06-11T08:46:43.249Z,5242.50
2018-06-11T08:47:43.329Z,5225.63
2018-06-11T08:49:36.359Z,5490.00
2018-06-11T08:50:36.434Z,5445.00
2018-06-11T08:52:29.457Z,5737.50
2018-06-11T08:53:29.535Z,5450.63
2018-06-11T08:55:22.570Z,5906.25
2018-06-11T08:56:22.645Z,6120.00
2018-06-11T08:58:15.673Z,5889.38
2018-06-11T08:59:15.748Z,6001.88
2018-06-11T09:01:08.795Z,5085.00
2018-06-11T09:02:08.863Z,5523.75
2018-06-11T09:04:01.890Z,5602.50
2018-06-11T09:05:01.975Z,2896.88
2018-06-11T09:06:55.006Z,4725.00
2018-06-11T09:07:55.081Z,1715.63
2018-06-11T09:09:48.625Z,4848.75
2018-06-11T09:10:48.690Z,4618.13
2018-06-11T09:12:41.712Z,4708.13
2018-06-11T09:13:41.799Z,4950.00
2018-06-11T09:15:34.827Z,5096.25
2018-06-11T09:16:34.900Z,5006.25
2018-06-11T09:18:28.076Z,4927.50
2018-06-11T09:19:28.025Z,4764.38
2018-06-11T09:21:21.045Z,4590.00
2018-06-11T09:22:21.120Z,4685.63
2018-06-11T09:24:14.142Z,4477.50
2018-06-11T09:25:14.225Z,4134.38
2018-06-11T09:27:07.260Z,4792.50
2018-06-11T09:28:07.335Z,4843.13
2018-06-11T09:30:00.376Z,3875.63
2018-06-11T09:31:00.442Z,2216.25
2018-06-11T09:32:53.463Z,928.13
2018-06-11T09:33:53.543Z,961.88
2018-06-11T09:35:46.579Z,939.38
2018-06-11T09:36:46.652Z,933.75
2018-06-11T09:38:39.679Z,933.75
2018-06-11T09:39:39.749Z,956.25
2018-06-11T09:41:32.776Z,1023.75
2018-06-11T09:42:32.849Z,1068.75
2018-06-11T09:44:25.859Z,1074.38
2018-06-11T09:45:25.949Z,1125.00
2018-06-11T09:47:18.960Z,1164.38
2018-06-11T09:48:19.027Z,1164.38
2018-06-11T09:50:12.046Z,1147.50
2018-06-11T09:51:12.128Z,1158.75
2018-06-11T09:53:05.148Z,1203.75
2018-06-11T09:54:05.220Z,1220.63
2018-06-11T09:55:58.222Z,1254.38
2018-06-11T09:56:58.288Z,1248.75
2018-06-11T09:58:51.301Z,1198.13
2018-06-11T09:59:51.375Z,1164.38
2018-06-11T10:01:44.397Z,1147.50
2018-06-11T10:02:44.465Z,1147.50
2018-06-11T10:04:37.475Z,1102.50
2018-06-11T10:05:37.547Z,1040.63
2018-06-11T10:07:30.561Z,905.63
2018-06-11T10:08:30.641Z,860.63
2018-06-11T10:10:23.641Z,877.50
2018-06-11T10:11:23.715Z,843.75
2018-06-11T10:13:16.728Z,838.13
2018-06-11T10:14:16.796Z,815.63
2018-06-11T10:16:09.830Z,821.25
2018-06-11T10:17:09.901Z,815.63
2018-06-11T10:19:02.933Z,855.00
2018-06-11T10:20:02.979Z,945.00
2018-06-11T10:21:56.502Z,978.75
2018-06-11T10:22:56.547Z,990.00
2018-06-11T10:24:49.606Z,905.63
2018-06-11T10:25:49.625Z,798.75
2018-06-11T10:27:42.637Z,675.00
2018-06-11T10:28:42.706Z,669.38
2018-06-11T10:30:35.710Z,607.50
2018-06-11T10:31:35.777Z,568.13
2018-06-11T10:33:29.303Z,528.75
2018-06-11T10:34:29.358Z,511.88
2018-06-11T10:36:22.373Z,500.63
2018-06-11T10:37:22.441Z,528.75
2018-06-11T10:39:15.456Z,590.63
2018-06-11T10:40:15.516Z,618.75
2018-06-11T10:42:08.527Z,630.00
2018-06-11T10:43:08.591Z,646.88
2018-06-11T10:45:01.599Z,703.13
2018-06-11T10:46:01.663Z,736.88
2018-06-11T10:47:54.679Z,731.25
2018-06-11T10:48:54.740Z,691.88
2018-06-11T10:50:47.743Z,663.75
2018-06-11T10:51:47.810Z,607.50
2018-06-11T10:53:40.825Z,556.88
2018-06-11T10:54:40.891Z,540.00
2018-06-11T10:56:33.894Z,506.25
2018-06-11T10:57:33.959Z,478.13
2018-06-11T10:59:26.972Z,450.00
2018-06-11T11:00:27.045Z,450.00
2018-06-11T11:02:20.052Z,478.13
2018-06-11T11:03:20.113Z,483.75
2018-06-11T11:05:13.117Z,495.00
2018-06-11T11:06:13.193Z,483.75
2018-06-11T11:08:06.193Z,478.13
2018-06-11T11:09:06.258Z,461.25
2018-06-11T11:10:59.258Z,438.75
2018-06-11T11:11:59.325Z,433.13
2018-06-11T11:13:52.339Z,405.00
2018-06-11T11:14:52.400Z,382.50
2018-06-11T11:16:45.431Z,365.63
2018-06-11T11:17:45.479Z,360.00
2018-06-11T11:19:38.494Z,365.63
2018-06-11T11:20:38.556Z,371.25
2018-06-11T11:22:32.081Z,393.75
2018-06-11T11:23:32.136Z,393.75
2018-06-11T11:25:25.146Z,371.25
2018-06-11T11:26:25.226Z,354.38
2018-06-11T11:28:18.226Z,343.13
2018-06-11T11:29:18.289Z,343.13
2018-06-11T11:31:11.294Z,354.38
2018-06-11T11:32:11.364Z,371.25
2018-06-11T11:34:04.374Z,382.50
2018-06-11T11:35:04.450Z,393.75
2018-06-11T11:36:57.949Z,393.75
2018-06-11T11:37:58.017Z,393.75
2018-06-11T11:39:51.839Z,399.38
2018-06-11T11:40:51.606Z,399.38
2018-06-11T11:42:44.648Z,410.63
2018-06-11T11:43:44.683Z,416.25
2018-06-11T11:45:37.717Z,405.00
2018-06-11T11:46:37.738Z,399.38
2018-06-11T11:48:30.742Z,388.13
2018-06-11T11:49:30.808Z,382.50
2018-06-11T11:51:23.814Z,371.25
2018-06-11T11:52:23.875Z,371.25
2018-06-11T11:54:16.887Z,376.88
2018-06-11T11:55:16.950Z,371.25
2018-06-11T11:57:09.962Z,376.88
2018-06-11T11:58:10.081Z,376.88
2018-06-11T12:00:03.048Z,376.88
2018-06-11T12:01:03.098Z,376.88
2018-06-11T12:02:56.104Z,371.25
2018-06-11T12:03:56.175Z,371.25
2018-06-11T12:05:49.180Z,376.88
2018-06-11T12:06:49.238Z,376.88
2018-06-11T12:08:42.242Z,371.25
2018-06-11T12:09:42.310Z,365.63
2018-06-11T12:11:35.315Z,360.00
2018-06-11T12:12:35.378Z,354.38
2018-06-11T12:14:28.404Z,343.13
2018-06-11T12:15:28.450Z,337.50
2018-06-11T12:17:21.463Z,331.88
2018-06-11T12:18:21.527Z,331.88
2018-06-11T12:20:14.533Z,326.25
2018-06-11T12:21:14.595Z,326.25
2018-06-11T12:23:07.595Z,320.63
2018-06-11T12:24:07.663Z,309.38
2018-06-11T12:26:00.673Z,309.38
2018-06-11T12:27:00.729Z,309.38
2018-06-11T12:28:53.735Z,309.38
2018-06-11T12:29:53.796Z,309.38
2018-06-11T12:31:46.810Z,298.13
2018-06-11T12:32:46.873Z,303.75
2018-06-11T12:34:39.879Z,303.75
2018-06-11T12:35:39.946Z,303.75
2018-06-11T12:37:32.961Z,303.75
2018-06-11T12:38:33.024Z,298.13
2018-06-11T12:40:26.037Z,292.50
2018-06-11T12:41:26.122Z,286.88
2018-06-11T12:43:19.094Z,281.25
2018-06-11T12:44:19.164Z,281.25
2018-06-11T12:46:12.171Z,286.88
2018-06-11T12:47:12.231Z,281.25
2018-06-11T12:49:05.232Z,286.88
2018-06-11T12:50:05.297Z,286.88
2018-06-11T12:51:58.305Z,286.88
2018-06-11T12:52:58.364Z,286.88
2018-06-11T12:54:51.394Z,281.25
2018-06-11T12:55:51.463Z,275.63
2018-06-11T12:57:44.473Z,281.25
2018-06-11T12:58:44.534Z,275.63
2018-06-11T13:00:38.049Z,275.63
2018-06-11T13:01:38.111Z,270.00
2018-06-11T13:03:31.116Z,270.00
2018-06-11T13:04:31.181Z,270.00
2018-06-11T13:06:24.178Z,264.38
2018-06-11T13:07:24.243Z,258.75
2018-06-11T13:09:17.252Z,258.75
2018-06-11T13:10:17.315Z,264.38
2018-06-11T13:12:10.325Z,264.38
2018-06-11T13:13:10.387Z,258.75
2018-06-11T13:15:03.391Z,264.38
2018-06-11T13:16:03.463Z,264.38
2018-06-11T13:17:56.469Z,264.38
2018-06-11T13:18:56.531Z,264.38
2018-06-11T13:20:49.538Z,264.38
2018-06-11T13:21:49.607Z,264.38
2018-06-11T13:23:42.613Z,264.38
2018-06-11T13:24:42.672Z,258.75
2018-06-11T13:26:35.676Z,253.13
2018-06-11T13:27:35.740Z,253.13
2018-06-11T13:29:28.744Z,258.75
2018-06-11T13:30:28.809Z,258.75
2018-06-11T13:32:21.841Z,264.38
2018-06-11T13:33:21.887Z,264.38
2018-06-11T13:35:14.890Z,264.38
2018-06-11T13:36:14.953Z,264.38
2018-06-11T13:38:07.957Z,264.38
2018-06-11T13:39:08.019Z,258.75
2018-06-11T13:41:01.037Z,258.75
2018-06-11T13:42:01.108Z,258.75
2018-06-11T13:43:54.111Z,258.75
2018-06-11T13:44:54.264Z,264.38
2018-06-11T13:46:47.180Z,264.38
2018-06-11T13:47:47.244Z,264.38
2018-06-11T13:49:40.256Z,270.00
2018-06-11T13:50:40.318Z,270.00
2018-06-11T13:52:33.321Z,264.38
2018-06-11T13:53:33.388Z,270.00
2018-06-11T13:55:26.395Z,270.00
2018-06-11T13:56:26.454Z,258.75
2018-06-11T13:58:19.459Z,270.00
2018-06-11T13:59:19.528Z,264.38
2018-06-11T14:01:12.524Z,258.75
2018-06-11T14:02:12.587Z,286.88
2018-06-11T14:04:05.605Z,348.75
2018-06-11T14:05:05.654Z,365.63
2018-06-11T14:06:58.658Z,376.88
2018-06-11T14:07:58.723Z,376.88
2018-06-11T14:09:51.730Z,354.38
2018-06-11T14:10:51.789Z,354.38
2018-06-11T14:12:44.793Z,365.63
2018-06-11T14:13:44.858Z,371.25
2018-06-11T14:15:37.863Z,382.50
2018-06-11T14:16:37.924Z,382.50
2018-06-11T14:18:30.920Z,405.00
2018-06-11T14:19:30.991Z,410.63
2018-06-11T14:21:23.997Z,433.13
2018-06-11T14:22:24.056Z,450.00
2018-06-11T14:24:17.097Z,472.50
2018-06-11T14:25:17.158Z,489.38
2018-06-11T14:27:10.167Z,545.63
2018-06-11T14:28:10.233Z,568.13
2018-06-11T14:30:03.237Z,590.63
2018-06-11T14:31:03.298Z,596.25
2018-06-11T14:32:56.302Z,585.00
2018-06-11T14:33:56.367Z,556.88
2018-06-11T14:35:49.374Z,534.38
2018-06-11T14:36:49.436Z,528.75
2018-06-11T14:38:42.437Z,511.88
2018-06-11T14:39:42.504Z,523.13
2018-06-11T14:41:35.520Z,540.00
2018-06-11T14:42:35.576Z,551.25
2018-06-11T14:44:28.590Z,562.50
2018-06-11T14:45:28.652Z,573.75
2018-06-11T14:47:21.677Z,596.25
2018-06-11T14:48:21.732Z,607.50
2018-06-11T14:50:14.739Z,630.00
2018-06-11T14:51:14.800Z,624.38
2018-06-11T14:53:07.805Z,613.13
2018-06-11T14:54:07.870Z,613.13
2018-06-11T14:56:00.877Z,618.75
2018-06-11T14:57:00.939Z,618.75
2018-06-11T14:58:53.939Z,618.75
2018-06-11T14:59:54.008Z,618.75
2018-06-11T15:01:47.018Z,624.38
2018-06-11T15:02:47.076Z,624.38
2018-06-11T15:04:40.089Z,618.75
2018-06-11T15:05:40.153Z,618.75
2018-06-11T15:07:33.156Z,624.38
2018-06-11T15:08:33.224Z,618.75
2018-06-11T15:10:26.230Z,601.88
2018-06-11T15:11:26.292Z,590.63
2018-06-11T15:13:19.301Z,568.13
2018-06-11T15:14:19.360Z,551.25
2018-06-11T15:16:12.371Z,540.00
2018-06-11T15:17:12.433Z,528.75
2018-06-11T15:19:05.426Z,517.50
2018-06-11T15:20:05.504Z,523.13
2018-06-11T15:21:59.018Z,528.75
2018-06-11T15:22:59.081Z,523.13
2018-06-11T15:24:52.085Z,506.25
2018-06-11T15:25:52.150Z,500.63
2018-06-11T15:27:45.165Z,478.13
2018-06-11T15:28:45.227Z,466.88
2018-06-11T15:30:38.233Z,444.38
2018-06-11T15:31:38.302Z,427.50
2018-06-11T15:33:31.299Z,399.38
2018-06-11T15:34:31.372Z,388.13
2018-06-11T15:36:24.382Z,376.88
2018-06-11T15:37:24.434Z,376.88
2018-06-11T15:39:17.436Z,371.25
2018-06-11T15:40:17.505Z,371.25
2018-06-11T15:42:10.519Z,371.25
2018-06-11T15:43:10.581Z,365.63
2018-06-11T15:45:03.582Z,354.38
2018-06-11T15:46:03.650Z,343.13
2018-06-11T15:47:56.657Z,343.13
2018-06-11T15:48:56.714Z,348.75
2018-06-11T15:50:49.721Z,360.00
2018-06-11T15:51:49.784Z,376.88
2018-06-11T15:53:42.802Z,393.75
2018-06-11T15:54:42.861Z,405.00
2018-06-11T15:56:35.868Z,421.88
2018-06-11T15:57:35.930Z,433.13
2018-06-11T15:59:28.941Z,450.00
2018-06-11T16:00:29.038Z,455.63
2018-06-11T16:02:22.009Z,466.88
2018-06-11T16:03:22.068Z,472.50
2018-06-11T16:05:15.124Z,478.13
2018-06-11T16:06:15.134Z,483.75
2018-06-11T16:08:08.140Z,489.38
2018-06-11T16:09:08.202Z,489.38
2018-06-11T16:11:01.221Z,489.38
2018-06-11T16:12:01.308Z,489.38
2018-06-11T16:13:54.280Z,483.75
2018-06-11T16:14:54.345Z,478.13
2018-06-11T16:16:47.376Z,478.13
2018-06-11T16:17:47.416Z,483.75
2018-06-11T16:19:40.467Z,472.50
2018-06-11T16:20:40.520Z,472.50
2018-06-11T16:22:34.019Z,466.88
2018-06-11T16:23:34.071Z,461.25
2018-06-11T16:25:27.071Z,455.63
2018-06-11T16:26:27.134Z,450.00
2018-06-11T16:28:20.179Z,438.75
2018-06-11T16:29:20.220Z,433.13
2018-06-11T16:31:13.269Z,438.75
2018-06-11T16:32:13.270Z,427.50
2018-06-11T16:34:06.785Z,416.25
2018-06-11T16:35:06.849Z,410.63
2018-06-11T16:36:59.878Z,393.75
2018-06-11T16:37:59.917Z,388.13
2018-06-11T16:39:52.925Z,376.88
2018-06-11T16:40:52.985Z,376.88
2018-06-11T16:42:45.997Z,376.88
2018-06-11T16:43:46.062Z,376.88
2018-06-11T16:45:39.060Z,371.25
2018-06-11T16:46:39.126Z,376.88
2018-06-11T16:48:32.136Z,360.00
2018-06-11T16:49:32.201Z,354.38
2018-06-11T16:51:25.199Z,348.75
2018-06-11T16:52:25.265Z,348.75
2018-06-11T16:54:18.279Z,337.50
2018-06-11T16:55:18.342Z,337.50
2018-06-11T16:57:11.332Z,331.88
2018-06-11T16:58:11.411Z,326.25
2018-06-11T17:00:04.409Z,315.00
2018-06-11T17:01:04.471Z,315.00
2018-06-11T17:02:57.469Z,315.00
2018-06-11T17:03:57.540Z,320.63
2018-06-11T17:05:50.550Z,315.00
2018-06-11T17:06:50.615Z,309.38
2018-06-11T17:08:43.624Z,303.75
2018-06-11T17:09:43.690Z,303.75
2018-06-11T17:11:36.688Z,303.75
2018-06-11T17:12:36.753Z,298.13
2018-06-11T17:14:29.759Z,298.13
2018-06-11T17:15:29.818Z,298.13
2018-06-11T17:17:22.820Z,286.88
2018-06-11T17:18:22.886Z,281.25
2018-06-11T17:20:15.965Z,270.00
2018-06-11T17:21:15.962Z,264.38
2018-06-11T17:23:08.955Z,253.13
2018-06-11T17:24:09.023Z,253.13
2018-06-11T17:26:02.034Z,247.50
2018-06-11T17:27:02.093Z,247.50
2018-06-11T17:28:55.126Z,247.50
2018-06-11T17:29:55.186Z,247.50
2018-06-11T17:31:48.191Z,253.13
2018-06-11T17:32:48.230Z,253.13
2018-06-11T17:34:41.272Z,258.75
2018-06-11T17:35:41.304Z,258.75
2018-06-11T17:37:34.303Z,258.75
2018-06-11T17:38:34.373Z,258.75
2018-06-11T17:40:27.890Z,253.13
2018-06-11T17:41:27.947Z,253.13
2018-06-11T17:43:20.952Z,247.50
2018-06-11T17:44:21.016Z,241.88
2018-06-11T17:46:14.022Z,236.25
2018-06-11T17:47:14.082Z,236.25
2018-06-11T17:49:07.083Z,236.25
2018-06-11T17:50:07.150Z,236.25
2018-06-11T17:52:00.209Z,241.88
2018-06-11T17:53:00.269Z,247.50
2018-06-11T17:54:53.262Z,247.50
2018-06-11T17:55:53.300Z,247.50
2018-06-11T17:57:46.363Z,241.88
2018-06-11T17:58:46.375Z,236.25
2018-06-11T18:00:39.380Z,225.00
2018-06-11T18:01:39.454Z,213.75
2018-06-11T18:03:32.442Z,196.88
2018-06-11T18:04:32.519Z,185.63
2018-06-11T18:06:25.548Z,174.38
2018-06-11T18:07:25.574Z,163.13
2018-06-11T18:09:18.712Z,146.25